Time;durP1;ratioP1;P1;durP2;ratioP2;P2;SDS_P1;SDS_P2;PMS_P1;PMS_P2;Temp;Humidity;BMP_temperature;BMP_pressure;BME280_temperature;BME280_humidity;BME280_pressure;Samples;Min_cycle;Max_cycle;Signal;HPM_P1;HPM_P2
2024/01/15 00:00:35;;;;;;;3.50;1.40;;;2.00;99.90;;;;;;5022295;28;20495;-62
2024/01/15 00:03:04;;;;;;;5.43;1.60;;;2.00;99.90;;;;;;5021532;28;20953;-62
2024/01/15 00:05:32;;;;;;;3.80;1.40;;;2.00;99.90;;;;;;5024622;28;20491;-61
2024/01/15 00:08:00;;;;;;;3.70;1.33;;;2.00;99.90;;;;;;5022477;28;20608;-62
2024/01/15 00:10:29;;;;;;;3.13;1.50;;;2.00;99.90;;;;;;5024069;28;20566;-62
2024/01/15 00:12:57;;;;;;;5.50;1.33;;;2.00;99.90;;;;;;5022705;28;20543;-61
2024/01/15 00:15:28;;;;;;;4.10;1.77;;;2.10;99.90;;;;;;5020761;28;20480;-61
2024/01/15 00:17:56;;;;;;;6.63;1.83;;;2.10;99.90;;;;;;5023933;28;20468;-62
2024/01/15 00:20:24;;;;;;;4.63;1.50;;;2.10;99.90;;;;;;5020678;28;20477;-62
2024/01/15 00:22:56;;;;;;;3.00;1.40;;;2.10;99.90;;;;;;5020935;28;20513;-62
2024/01/15 00:25:24;;;;;;;7.43;2.20;;;2.10;99.90;;;;;;5023960;28;20494;-61
2024/01/15 00:27:54;;;;;;;7.57;1.97;;;2.10;99.90;;;;;;5021164;28;20550;-62
2024/01/15 00:30:22;;;;;;;6.07;2.23;;;2.10;99.90;;;;;;5019244;28;20899;-61
2024/01/15 00:32:50;;;;;;;7.07;2.27;;;2.10;99.90;;;;;;5022251;28;20467;-62
2024/01/15 00:35:18;;;;;;;5.27;1.80;;;2.00;99.90;;;;;;5020123;28;20993;-62
2024/01/15 00:37:46;;;;;;;4.10;2.00;;;2.00;99.90;;;;;;5024140;28;20554;-62
2024/01/15 00:40:14;;;;;;;5.40;1.93;;;2.00;99.90;;;;;;5021524;28;20571;-61
2024/01/15 00:42:42;;;;;;;4.97;1.97;;;2.00;99.90;;;;;;5022714;28;20499;-61
2024/01/15 00:45:12;;;;;;;4.70;2.00;;;2.00;99.90;;;;;;5016055;28;20527;-62
2024/01/15 00:47:40;;;;;;;6.30;1.60;;;2.00;99.90;;;;;;5021358;28;20511;-61
2024/01/15 00:50:09;;;;;;;7.20;2.13;;;2.00;99.90;;;;;;5025532;28;21217;-62
2024/01/15 00:52:37;;;;;;;5.40;1.80;;;2.00;99.90;;;;;;5025278;28;20560;-61
2024/01/15 00:55:06;;;;;;;5.80;1.73;;;2.00;99.90;;;;;;5024209;28;20514;-60
2024/01/15 00:57:34;;;;;;;4.30;2.30;;;2.00;99.90;;;;;;5023712;28;20525;-62
2024/01/15 01:00:02;;;;;;;5.87;2.00;;;2.00;99.90;;;;;;5023434;28;20563;-62
2024/01/15 01:02:35;;;;;;;3.23;1.53;;;2.00;99.90;;;;;;5018952;28;20557;-61
2024/01/15 01:05:03;;;;;;;4.57;1.87;;;2.00;99.90;;;;;;5023145;28;20873;-62
2024/01/15 01:07:31;;;;;;;4.73;1.87;;;2.00;99.90;;;;;;5025299;28;20483;-61
2024/01/15 01:09:59;;;;;;;7.93;1.50;;;2.10;99.90;;;;;;5021905;28;20494;-62
2024/01/15 01:12:27;;;;;;;8.00;3.53;;;2.10;99.90;;;;;;5022151;28;20535;-62
2024/01/15 01:14:55;;;;;;;4.37;1.87;;;2.00;99.90;;;;;;5022109;28;20471;-62
2024/01/15 01:17:23;;;;;;;4.47;1.40;;;2.00;99.90;;;;;;5021676;28;20486;-62
2024/01/15 01:19:53;;;;;;;9.27;1.77;;;2.00;99.90;;;;;;5023637;28;20533;-62
2024/01/15 01:22:21;;;;;;;4.50;1.53;;;2.00;99.90;;;;;;5024339;28;20605;-62
2024/01/15 01:24:49;;;;;;;4.80;1.83;;;2.00;99.90;;;;;;5018149;28;20547;-62
2024/01/15 01:27:17;;;;;;;6.53;2.07;;;2.00;99.90;;;;;;5016555;28;20494;-62
2024/01/15 01:29:45;;;;;;;9.43;2.70;;;2.00;99.90;;;;;;5017747;28;21021;-61
2024/01/15 01:32:13;;;;;;;4.27;1.43;;;2.00;99.90;;;;;;5018119;28;21074;-61
2024/01/15 01:34:42;;;;;;;7.23;1.47;;;2.10;99.90;;;;;;5023060;28;20522;-62
2024/01/15 01:37:13;;;;;;;7.20;1.70;;;2.10;99.90;;;;;;5022038;28;20463;-62
2024/01/15 01:39:42;;;;;;;4.67;1.37;;;2.10;99.90;;;;;;5017588;28;20482;-62
2024/01/15 01:42:10;;;;;;;5.90;2.10;;;2.10;99.90;;;;;;5017003;28;20483;-61
2024/01/15 01:44:38;;;;;;;6.83;2.10;;;2.20;99.90;;;;;;5032878;28;20473;-60
2024/01/15 01:47:06;;;;;;;2.70;1.70;;;2.20;99.90;;;;;;5037627;28;20558;-60
2024/01/15 01:49:36;;;;;;;3.30;1.70;;;2.20;99.90;;;;;;5021770;28;20986;-61
2024/01/15 01:52:07;;;;;;;10.57;2.10;;;2.20;99.90;;;;;;5016401;28;20503;-62
2024/01/15 01:54:37;;;;;;;4.93;1.73;;;2.30;99.90;;;;;;5022492;28;20553;-62
2024/01/15 01:57:06;;;;;;;5.77;1.67;;;2.30;99.90;;;;;;5017267;28;20561;-61
2024/01/15 01:59:36;;;;;;;8.50;2.73;;;2.30;99.90;;;;;;5012373;28;20499;-60
2024/01/15 02:02:06;;;;;;;5.87;2.20;;;2.30;99.90;;;;;;5010114;28;20511;-62
2024/01/15 02:04:36;;;;;;;3.10;1.63;;;2.20;99.90;;;;;;5018321;28;21331;-61
2024/01/15 02:07:04;;;;;;;9.57;3.30;;;2.20;99.90;;;;;;5014952;28;20498;-61
2024/01/15 02:09:32;;;;;;;3.13;1.37;;;2.20;99.90;;;;;;5015965;28;20475;-62
2024/01/15 02:12:02;;;;;;;5.00;1.87;;;2.20;99.90;;;;;;5018715;28;20497;-61
2024/01/15 02:14:30;;;;;;;7.37;2.00;;;2.30;99.90;;;;;;5020027;28;20471;-60
2024/01/15 02:16:58;;;;;;;8.87;2.17;;;2.30;99.90;;;;;;5022534;28;20952;-62
2024/01/15 02:19:26;;;;;;;2.83;1.43;;;2.20;99.90;;;;;;5024173;28;20547;-61
2024/01/15 02:21:54;;;;;;;4.90;2.30;;;2.20;99.90;;;;;;5017549;28;20645;-61
2024/01/15 02:24:24;;;;;;;6.17;1.63;;;2.20;99.90;;;;;;5022909;28;20506;-61
2024/01/15 02:26:52;;;;;;;4.30;1.73;;;2.20;99.90;;;;;;5022402;28;20514;-62
2024/01/15 02:29:20;;;;;;;2.97;1.90;;;2.20;99.90;;;;;;5016997;28;20562;-62
2024/01/15 02:31:48;;;;;;;5.83;1.57;;;2.20;99.90;;;;;;5018755;28;20753;-62
2024/01/15 02:34:16;;;;;;;4.07;1.70;;;2.20;99.90;;;;;;5015004;28;20471;-62
2024/01/15 02:36:44;;;;;;;4.60;1.50;;;2.20;99.90;;;;;;5021488;28;20482;-62
2024/01/15 02:39:13;;;;;;;4.30;2.40;;;2.10;99.90;;;;;;5019499;28;20475;-62
2024/01/15 02:41:42;;;;;;;4.17;1.83;;;2.10;99.90;;;;;;5021540;28;20496;-61
2024/01/15 02:44:10;;;;;;;5.33;1.90;;;2.10;99.90;;;;;;5020185;28;21054;-62
2024/01/15 02:46:38;;;;;;;7.40;2.53;;;2.10;99.90;;;;;;5015305;28;20501;-62
2024/01/15 02:49:06;;;;;;;6.27;2.03;;;2.10;99.90;;;;;;5019746;28;20912;-62
2024/01/15 02:51:41;;;;;;;2.73;2.33;;;2.10;99.90;;;;;;5019386;28;20499;-62
2024/01/15 02:54:09;;;;;;;7.33;2.50;;;2.10;99.90;;;;;;5020857;28;20478;-62
2024/01/15 02:56:37;;;;;;;9.63;2.43;;;2.20;99.90;;;;;;5012723;28;20944;-62
2024/01/15 02:59:07;;;;;;;4.27;2.10;;;2.20;99.90;;;;;;5017722;28;20563;-61
2024/01/15 03:01:41;;;;;;;5.90;2.50;;;2.20;99.90;;;;;;5024287;28;20483;-60
2024/01/15 03:04:09;;;;;;;5.03;2.47;;;2.30;99.90;;;;;;5023787;28;20471;-62
2024/01/15 03:06:37;;;;;;;4.97;1.43;;;2.30;99.90;;;;;;5023679;28;20582;-61
2024/01/15 03:09:05;;;;;;;7.03;2.50;;;2.30;99.90;;;;;;5017924;28;20586;-62
2024/01/15 03:11:38;;;;;;;5.40;1.83;;;2.30;99.90;;;;;;5025243;28;20494;-62
2024/01/15 03:14:08;;;;;;;5.37;2.10;;;2.30;99.90;;;;;;5025473;28;20706;-61
2024/01/15 03:16:36;;;;;;;3.87;1.90;;;2.30;99.90;;;;;;5027162;28;20475;-62
2024/01/15 03:19:04;;;;;;;3.63;1.53;;;2.30;99.90;;;;;;5022863;28;20562;-62
2024/01/15 03:21:32;;;;;;;3.50;1.50;;;2.30;99.90;;;;;;5021244;28;20487;-62
2024/01/15 03:24:00;;;;;;;5.57;1.13;;;2.30;99.90;;;;;;5024771;28;20700;-61
2024/01/15 03:26:28;;;;;;;5.77;1.57;;;2.30;99.90;;;;;;5022812;28;21097;-62
2024/01/15 03:28:55;;;;;;;3.63;1.70;;;2.30;99.90;;;;;;5019644;28;20475;-62
2024/01/15 03:31:25;;;;;;;7.13;2.07;;;2.30;99.90;;;;;;5023183;28;20916;-61
2024/01/15 03:33:53;;;;;;;6.50;1.53;;;2.30;99.90;;;;;;5023848;28;20477;-62
2024/01/15 03:36:21;;;;;;;5.40;1.87;;;2.20;99.90;;;;;;5021160;28;20606;-62
2024/01/15 03:38:49;;;;;;;6.33;1.87;;;2.30;99.90;;;;;;5018181;28;20479;-61
2024/01/15 03:41:17;;;;;;;8.17;1.93;;;2.20;99.90;;;;;;5018419;28;20487;-62
2024/01/15 03:43:45;;;;;;;6.90;1.90;;;2.20;99.90;;;;;;5021159;28;20473;-62
2024/01/15 03:46:13;;;;;;;4.77;1.77;;;2.20;99.90;;;;;;5024227;28;20922;-62
2024/01/15 03:48:42;;;;;;;10.40;2.77;;;2.20;99.90;;;;;;5023104;28;20501;-61
2024/01/15 03:51:11;;;;;;;6.73;2.07;;;2.20;99.90;;;;;;5020406;28;20585;-61
2024/01/15 03:53:39;;;;;;;6.47;1.73;;;2.20;99.90;;;;;;5023797;28;20482;-61
2024/01/15 03:56:07;;;;;;;7.83;1.87;;;2.10;99.90;;;;;;5038400;28;20491;-61
2024/01/15 03:58:35;;;;;;;5.00;1.63;;;2.10;99.90;;;;;;5042281;28;20467;-61
2024/01/15 04:01:03;;;;;;;7.53;2.80;;;2.20;99.90;;;;;;5024941;28;20483;-62
2024/01/15 04:03:31;;;;;;;5.87;1.70;;;2.20;99.90;;;;;;5019161;28;20525;-62
2024/01/15 04:06:01;;;;;;;6.80;1.53;;;2.20;99.90;;;;;;5016577;28;20486;-61
2024/01/15 04:08:29;;;;;;;5.73;1.80;;;2.20;99.90;;;;;;5021635;28;20490;-61
2024/01/15 04:10:57;;;;;;;7.87;1.80;;;2.20;99.90;;;;;;5021124;28;20491;-62
2024/01/15 04:13:25;;;;;;;6.73;2.00;;;2.20;99.90;;;;;;5020521;28;20562;-62
2024/01/15 04:15:53;;;;;;;8.93;1.93;;;2.20;99.90;;;;;;5023800;28;20906;-61
2024/01/15 04:18:21;;;;;;;4.53;1.40;;;2.10;99.90;;;;;;5022987;28;20568;-62
2024/01/15 04:20:49;;;;;;;6.43;2.10;;;2.20;99.90;;;;;;5020876;28;20487;-62
2024/01/15 04:23:18;;;;;;;12.87;3.27;;;2.20;99.90;;;;;;5023135;28;20477;-62
2024/01/15 04:25:46;;;;;;;6.93;1.70;;;2.20;99.90;;;;;;5020451;28;20463;-62
2024/01/15 04:28:14;;;;;;;5.67;1.90;;;2.20;99.90;;;;;;5020306;28;20491;-62
2024/01/15 04:30:42;;;;;;;11.47;2.10;;;2.20;99.90;;;;;;5022874;28;20568;-62
2024/01/15 04:33:11;;;;;;;5.07;1.80;;;2.20;99.90;;;;;;5022863;28;20474;-62
2024/01/15 04:35:39;;;;;;;9.17;1.93;;;2.20;99.90;;;;;;5025736;28;21056;-62
2024/01/15 04:38:07;;;;;;;6.83;1.63;;;2.20;99.90;;;;;;5021704;28;20476;-62
2024/01/15 04:40:36;;;;;;;7.53;2.73;;;2.20;99.90;;;;;;5022183;28;20531;-62
2024/01/15 04:43:04;;;;;;;5.53;2.03;;;2.20;99.90;;;;;;5018218;28;20853;-62
2024/01/15 04:45:32;;;;;;;9.53;2.50;;;2.30;99.90;;;;;;5023194;28;20493;-62
2024/01/15 04:48:00;;;;;;;11.67;2.97;;;2.30;99.90;;;;;;5023119;28;21063;-62
2024/01/15 04:50:28;;;;;;;9.40;2.33;;;2.30;99.90;;;;;;5017021;28;20503;-62
2024/01/15 04:52:56;;;;;;;6.73;2.30;;;2.30;99.90;;;;;;5019565;28;20568;-61
2024/01/15 04:55:24;;;;;;;9.20;2.00;;;2.40;99.90;;;;;;5024025;28;20550;-62
2024/01/15 04:57:53;;;;;;;8.33;2.30;;;2.40;99.90;;;;;;5021197;28;20468;-62
2024/01/15 05:00:22;;;;;;;6.90;2.03;;;2.40;99.90;;;;;;5020651;28;20646;-62
2024/01/15 05:02:50;;;;;;;9.93;2.80;;;2.40;99.90;;;;;;5022642;28;20562;-62
2024/01/15 05:05:18;;;;;;;10.33;2.20;;;2.40;99.90;;;;;;5021929;28;20667;-62
2024/01/15 05:07:47;;;;;;;7.93;2.50;;;2.40;99.90;;;;;;5019313;28;20491;-62
2024/01/15 05:10:15;;;;;;;7.23;2.70;;;2.40;99.90;;;;;;5021351;28;20503;-61
2024/01/15 05:12:43;;;;;;;11.47;3.00;;;2.40;99.90;;;;;;5023636;28;20575;-62
2024/01/15 05:15:12;;;;;;;10.03;2.60;;;2.40;99.90;;;;;;5022722;28;20505;-62
2024/01/15 05:17:40;;;;;;;5.43;2.20;;;2.40;99.90;;;;;;5021799;28;20548;-62
2024/01/15 05:20:09;;;;;;;11.03;3.40;;;2.40;99.90;;;;;;5019897;28;20897;-61
2024/01/15 05:22:37;;;;;;;8.80;3.73;;;2.40;99.90;;;;;;5021187;28;20976;-62
2024/01/15 05:25:06;;;;;;;9.53;3.07;;;2.50;99.90;;;;;;5022352;28;20631;-61
2024/01/15 05:27:34;;;;;;;11.67;2.80;;;2.50;99.90;;;;;;5020751;28;20491;-61
2024/01/15 05:30:02;;;;;;;7.03;2.20;;;2.50;99.90;;;;;;5007393;28;20584;-61
2024/01/15 05:32:32;;;;;;;8.07;2.50;;;2.50;99.90;;;;;;5018505;28;20518;-62
2024/01/15 05:35:00;;;;;;;11.33;3.13;;;2.50;99.90;;;;;;5019100;28;20575;-61
2024/01/15 05:37:28;;;;;;;6.53;2.10;;;2.50;99.90;;;;;;5019566;28;20474;-62
2024/01/15 05:39:56;;;;;;;5.90;1.80;;;2.50;99.90;;;;;;5012199;28;20547;-61
2024/01/15 05:42:24;;;;;;;6.50;2.00;;;2.60;99.90;;;;;;5014949;28;20552;-60
2024/01/15 05:44:52;;;;;;;8.53;2.33;;;2.60;99.90;;;;;;5018796;28;20466;-60
2024/01/15 05:47:20;;;;;;;14.83;4.57;;;2.60;99.90;;;;;;5017015;28;20495;-62
2024/01/15 05:49:49;;;;;;;10.17;2.90;;;2.60;99.90;;;;;;5010834;28;20472;-62
2024/01/15 05:52:17;;;;;;;13.97;3.10;;;2.60;99.90;;;;;;5023442;28;20482;-62
2024/01/15 05:54:45;;;;;;;10.90;2.30;;;2.60;99.90;;;;;;5021864;28;20510;-62
2024/01/15 05:57:13;;;;;;;10.23;2.60;;;2.60;99.90;;;;;;5014798;28;20479;-62
2024/01/15 05:59:42;;;;;;;8.10;3.00;;;2.60;99.90;;;;;;5021563;28;20493;-62
2024/01/15 06:02:10;;;;;;;6.57;2.20;;;2.50;99.90;;;;;;5016563;28;20495;-62
2024/01/15 06:04:38;;;;;;;12.20;2.83;;;2.50;99.90;;;;;;5018239;28;21023;-61
2024/01/15 06:07:07;;;;;;;8.57;2.03;;;2.60;99.90;;;;;;5019263;28;20475;-62
2024/01/15 06:09:36;;;;;;;7.07;2.27;;;2.60;99.90;;;;;;5031834;28;20543;-60
2024/01/15 06:12:04;;;;;;;10.20;2.60;;;2.60;99.90;;;;;;5037987;28;20501;-60
2024/01/15 06:14:32;;;;;;;8.87;2.30;;;2.60;99.90;;;;;;5024257;28;20536;-62
2024/01/15 06:17:00;;;;;;;10.30;3.03;;;2.60;99.90;;;;;;5011285;28;20467;-64
2024/01/15 06:19:28;;;;;;;9.23;2.60;;;2.60;99.90;;;;;;5011414;28;20463;-64
2024/01/15 06:21:57;;;;;;;13.97;2.80;;;2.60;99.90;;;;;;5012595;28;20933;-61
2024/01/15 06:24:26;;;;;;;13.90;3.10;;;2.60;99.90;;;;;;5017031;28;20467;-60
2024/01/15 06:26:54;;;;;;;6.40;2.23;;;2.50;99.90;;;;;;5012075;28;20479;-61
2024/01/15 06:29:24;;;;;;;7.70;2.70;;;2.50;99.90;;;;;;5011389;28;20618;-62
2024/01/15 06:31:51;;;;;;;12.00;2.70;;;2.50;99.90;;;;;;5014848;28;20497;-61
2024/01/15 06:34:20;;;;;;;8.87;3.17;;;2.50;99.90;;;;;;4994214;28;20662;-61
2024/01/15 06:36:48;;;;;;;8.03;2.40;;;2.50;99.90;;;;;;5007738;28;20486;-61
2024/01/15 06:39:16;;;;;;;15.23;3.47;;;2.50;99.90;;;;;;5012986;28;20471;-61
2024/01/15 06:41:45;;;;;;;7.43;2.23;;;2.60;99.90;;;;;;5013161;28;20943;-61
2024/01/15 06:44:13;;;;;;;9.07;2.60;;;2.60;99.90;;;;;;5008221;28;20467;-61
2024/01/15 06:46:43;;;;;;;7.10;2.67;;;2.60;99.90;;;;;;4996515;28;20479;-61
2024/01/15 06:49:12;;;;;;;8.93;2.20;;;2.60;99.90;;;;;;5010035;28;20641;-61
2024/01/15 06:51:40;;;;;;;5.63;2.20;;;2.60;99.90;;;;;;5013553;28;21183;-61
2024/01/15 06:54:08;;;;;;;6.87;1.90;;;2.60;99.90;;;;;;5016694;28;20564;-60
2024/01/15 06:56:36;;;;;;;6.10;2.00;;;2.60;99.90;;;;;;5016616;28;20970;-61
2024/01/15 06:59:06;;;;;;;5.60;1.77;;;2.60;99.90;;;;;;5012229;28;20473;-61
2024/01/15 07:01:34;;;;;;;5.20;1.77;;;2.60;99.90;;;;;;5015633;28;20578;-61
2024/01/15 07:04:02;;;;;;;6.97;1.90;;;2.60;99.90;;;;;;5014094;28;20514;-61
2024/01/15 07:06:30;;;;;;;12.17;2.30;;;2.60;99.90;;;;;;5011643;28;21927;-61
2024/01/15 07:08:58;;;;;;;9.23;3.00;;;2.60;99.90;;;;;;5010224;28;20917;-61
2024/01/15 07:11:26;;;;;;;8.57;1.97;;;2.60;99.90;;;;;;5008980;28;20530;-61
2024/01/15 07:13:54;;;;;;;7.57;1.57;;;2.70;99.90;;;;;;5009793;28;20481;-61
2024/01/15 07:16:24;;;;;;;8.07;1.90;;;2.70;99.90;;;;;;5017725;28;20490;-61
2024/01/15 07:19:04;;;;;;;5.17;1.60;;;2.70;99.90;;;;;;5019392;28;20501;-61
2024/01/15 07:21:33;;;;;;;4.20;1.87;;;2.70;99.90;;;;;;5023211;28;20518;-61
2024/01/15 07:24:01;;;;;;;6.20;1.57;;;2.70;99.90;;;;;;5020600;28;20489;-61
2024/01/15 07:26:30;;;;;;;3.87;2.20;;;2.70;99.90;;;;;;5022132;28;20939;-60
2024/01/15 07:28:58;;;;;;;4.87;1.97;;;2.70;99.90;;;;;;5020670;28;20487;-61
2024/01/15 07:31:28;;;;;;;6.30;1.73;;;2.70;99.90;;;;;;5003563;28;20487;-60
2024/01/15 07:33:56;;;;;;;6.17;1.90;;;2.70;99.90;;;;;;5024237;28;20475;-61
2024/01/15 07:36:24;;;;;;;7.50;1.67;;;2.70;99.90;;;;;;5020360;28;21021;-62
2024/01/15 07:38:52;;;;;;;6.70;1.77;;;2.80;99.90;;;;;;5014196;28;20474;-61
2024/01/15 07:41:20;;;;;;;3.43;1.60;;;2.80;99.90;;;;;;5016537;28;20491;-62
2024/01/15 07:43:48;;;;;;;4.93;2.00;;;2.80;99.90;;;;;;5015342;28;20475;-61
2024/01/15 07:46:16;;;;;;;6.30;1.50;;;2.80;99.90;;;;;;5011940;28;20924;-61
2024/01/15 07:48:45;;;;;;;6.23;1.57;;;2.70;99.90;;;;;;5013019;28;20517;-61
2024/01/15 07:51:14;;;;;;;4.00;1.27;;;2.80;99.90;;;;;;5014544;28;20495;-61
2024/01/15 07:53:42;;;;;;;4.10;1.43;;;2.80;99.90;;;;;;5015958;28;21082;-60
2024/01/15 07:56:10;;;;;;;5.70;1.37;;;2.80;99.90;;;;;;5012115;28;21019;-61
2024/01/15 07:58:38;;;;;;;2.57;0.93;;;2.80;99.90;;;;;;5016734;28;20984;-60
2024/01/15 08:01:07;;;;;;;5.93;1.87;;;2.70;99.90;;;;;;5016128;28;20790;-60
2024/01/15 08:03:35;;;;;;;5.00;1.40;;;2.70;99.90;;;;;;5007705;28;20479;-60
2024/01/15 08:06:05;;;;;;;5.00;1.30;;;2.70;99.90;;;;;;5013995;28;21023;-61
2024/01/15 08:08:34;;;;;;;5.13;1.20;;;2.70;99.90;;;;;;5011866;28;20949;-61
2024/01/15 08:11:02;;;;;;;4.23;1.50;;;2.70;99.90;;;;;;5001202;28;20511;-61
2024/01/15 08:13:30;;;;;;;4.93;1.40;;;2.70;99.90;;;;;;5008669;28;20483;-61
2024/01/15 08:15:58;;;;;;;5.10;1.43;;;2.80;99.90;;;;;;5006638;28;20471;-62
2024/01/15 08:18:26;;;;;;;6.80;1.40;;;2.80;99.90;;;;;;5005742;28;20476;-64
2024/01/15 08:20:55;;;;;;;4.00;1.43;;;2.80;99.90;;;;;;5002859;28;23663;-61
2024/01/15 08:23:24;;;;;;;3.10;1.30;;;2.80;99.90;;;;;;5021500;28;20471;-60
2024/01/15 08:25:52;;;;;;;5.17;1.50;;;2.80;99.90;;;;;;5030775;28;20483;-59
2024/01/15 08:28:20;;;;;;;4.20;1.40;;;2.80;99.90;;;;;;5015525;28;20669;-60
2024/01/15 08:30:48;;;;;;;6.97;1.47;;;2.80;99.90;;;;;;5010728;28;20487;-60
2024/01/15 08:33:16;;;;;;;4.57;1.90;;;2.80;99.90;;;;;;5011968;28;20474;-60
2024/01/15 08:35:49;;;;;;;8.93;1.53;;;2.80;99.90;;;;;;5008118;28;20637;-60
2024/01/15 08:38:17;;;;;;;6.87;1.97;;;2.80;99.90;;;;;;5000827;28;20498;-59
2024/01/15 08:40:47;;;;;;;4.83;1.57;;;2.80;99.90;;;;;;5005343;28;20627;-61
2024/01/15 08:43:15;;;;;;;5.27;1.13;;;2.80;99.90;;;;;;5007988;28;20494;-61
2024/01/15 08:45:43;;;;;;;4.80;1.23;;;2.80;99.90;;;;;;5014689;28;20872;-61
2024/01/15 08:48:11;;;;;;;3.97;1.50;;;2.80;99.90;;;;;;5005760;28;20490;-61
2024/01/15 08:50:39;;;;;;;4.13;1.43;;;2.80;99.90;;;;;;5008357;28;20517;-61
2024/01/15 08:53:07;;;;;;;4.70;1.40;;;2.80;99.90;;;;;;5003020;28;20485;-60
2024/01/15 08:55:35;;;;;;;7.27;1.60;;;2.70;99.90;;;;;;5011339;28;20604;-61
2024/01/15 08:58:07;;;;;;;5.80;1.57;;;2.70;99.90;;;;;;5007947;28;20546;-60
2024/01/15 09:00:35;;;;;;;6.53;1.47;;;2.70;99.90;;;;;;5004211;28;20493;-61
2024/01/15 09:03:03;;;;;;;4.17;1.40;;;2.70;99.90;;;;;;5006214;28;20479;-61
2024/01/15 09:05:31;;;;;;;3.70;1.57;;;2.70;99.90;;;;;;5011057;28;20471;-61
2024/01/15 09:07:59;;;;;;;3.40;1.37;;;2.70;99.90;;;;;;5010303;28;20557;-60
2024/01/15 09:10:27;;;;;;;4.00;1.60;;;2.60;99.90;;;;;;5008919;28;20545;-61
2024/01/15 09:12:56;;;;;;;6.90;1.40;;;2.60;99.90;;;;;;5006728;28;20479;-61
2024/01/15 09:15:25;;;;;;;5.40;1.37;;;2.60;99.90;;;;;;5005178;28;20629;-61
2024/01/15 09:17:53;;;;;;;4.83;1.20;;;2.60;99.90;;;;;;5006821;28;20487;-61
2024/01/15 09:20:21;;;;;;;5.40;1.97;;;2.60;99.90;;;;;;5006990;28;20487;-61
2024/01/15 09:22:49;;;;;;;4.77;1.57;;;2.70;99.90;;;;;;5009335;28;20921;-61
2024/01/15 09:25:18;;;;;;;2.63;1.27;;;2.70;99.90;;;;;;5009254;28;21064;-61
2024/01/15 09:27:46;;;;;;;6.43;1.80;;;2.70;99.90;;;;;;5010604;28;20551;-59
2024/01/15 09:30:15;;;;;;;4.90;1.27;;;2.60;99.90;;;;;;5012036;28;20496;-60
2024/01/15 09:32:45;;;;;;;5.37;2.00;;;2.60;99.90;;;;;;5007577;28;20491;-61
2024/01/15 09:35:13;;;;;;;4.80;1.27;;;2.50;99.90;;;;;;5008403;28;20479;-60
2024/01/15 09:37:42;;;;;;;3.93;1.50;;;2.40;99.90;;;;;;5009002;28;20488;-61
2024/01/15 09:40:16;;;;;;;5.13;1.40;;;2.30;99.90;;;;;;4999851;28;20493;-61
2024/01/15 09:42:44;;;;;;;4.47;1.30;;;2.30;99.90;;;;;;5008127;28;20681;-61
2024/01/15 09:45:12;;;;;;;4.93;1.13;;;2.20;99.90;;;;;;5006676;28;20489;-59
2024/01/15 09:47:43;;;;;;;2.17;1.57;;;2.10;99.90;;;;;;5002391;28;21243;-61
2024/01/15 09:50:15;;;;;;;2.53;1.40;;;2.10;99.90;;;;;;5011460;28;20557;-61
2024/01/15 09:52:45;;;;;;;3.20;1.33;;;2.20;99.90;;;;;;5014355;28;20490;-60
2024/01/15 09:55:15;;;;;;;12.47;6.23;;;2.10;99.90;;;;;;5009379;28;20483;-59
2024/01/15 09:57:44;;;;;;;4.37;2.23;;;2.10;99.90;;;;;;5013695;28;20549;-61
2024/01/15 10:00:13;;;;;;;4.53;2.03;;;2.10;99.90;;;;;;5009992;28;20486;-61
2024/01/15 10:02:42;;;;;;;3.23;1.60;;;2.10;99.90;;;;;;5009960;28;20499;-60
2024/01/15 10:05:10;;;;;;;4.40;1.60;;;2.10;99.90;;;;;;5008718;28;20475;-61
2024/01/15 10:07:41;;;;;;;8.07;1.70;;;2.10;99.90;;;;;;5011901;28;20545;-61
2024/01/15 10:10:11;;;;;;;4.80;1.53;;;2.10;99.90;;;;;;5010437;28;20488;-61
2024/01/15 10:12:40;;;;;;;4.07;1.87;;;2.10;99.90;;;;;;5017087;28;20498;-61
2024/01/15 10:15:11;;;;;;;4.50;1.60;;;2.10;99.90;;;;;;5013128;28;20572;-61
2024/01/15 10:17:40;;;;;;;4.43;1.30;;;2.10;99.90;;;;;;5015346;28;20474;-61
2024/01/15 10:20:10;;;;;;;6.17;1.50;;;2.10;99.90;;;;;;5015060;28;20899;-61
2024/01/15 10:22:43;;;;;;;4.47;1.80;;;2.10;99.90;;;;;;5000260;28;20571;-59
2024/01/15 10:25:15;;;;;;;4.50;1.40;;;2.20;99.90;;;;;;5007601;28;20969;-60
2024/01/15 10:27:43;;;;;;;3.47;1.00;;;2.20;99.90;;;;;;5010777;28;20581;-61
2024/01/15 10:30:13;;;;;;;5.83;1.63;;;2.20;99.90;;;;;;5013128;28;20497;-61
2024/01/15 10:32:42;;;;;;;2.20;1.00;;;2.20;99.90;;;;;;5014319;28;21084;-61
2024/01/15 10:35:11;;;;;;;2.90;1.10;;;2.20;99.90;;;;;;5013501;28;21248;-61
2024/01/15 10:37:39;;;;;;;2.60;1.27;;;2.20;99.90;;;;;;5030524;28;21006;-61
2024/01/15 10:40:09;;;;;;;6.30;1.50;;;2.20;99.90;;;;;;5036358;28;20549;-60
2024/01/15 10:42:37;;;;;;;3.70;1.30;;;2.20;99.90;;;;;;5012854;28;21368;-61
2024/01/15 10:45:08;;;;;;;2.90;1.27;;;2.20;99.90;;;;;;5012148;28;20516;-61
2024/01/15 10:47:37;;;;;;;3.20;1.23;;;2.30;99.90;;;;;;5010395;28;20521;-59
2024/01/15 10:50:07;;;;;;;2.03;1.23;;;2.20;99.90;;;;;;5015694;28;20506;-61
2024/01/15 10:52:36;;;;;;;1.97;1.20;;;2.20;99.90;;;;;;5018420;28;20594;-60
2024/01/15 10:55:06;;;;;;;1.57;1.20;;;2.20;99.90;;;;;;5013802;28;20471;-61
2024/01/15 10:57:43;;;;;;;3.80;1.37;;;2.20;99.90;;;;;;5014749;28;20490;-60
2024/01/15 11:00:14;;;;;;;1.90;0.97;;;2.20;99.90;;;;;;5016844;28;20486;-59
2024/01/15 11:02:44;;;;;;;3.50;1.93;;;2.20;99.90;;;;;;5015691;28;20505;-61
2024/01/15 11:05:12;;;;;;;3.30;1.40;;;2.20;99.90;;;;;;5013786;28;20617;-60
2024/01/15 11:07:41;;;;;;;2.03;1.30;;;2.20;99.90;;;;;;5015154;28;20964;-60
2024/01/15 11:10:40;;;;;;;1.60;0.90;;;2.20;99.90;;;;;;5016452;28;20554;-61
2024/01/15 11:13:11;;;;;;;3.53;1.10;;;2.10;99.90;;;;;;5016317;28;20538;-61
2024/01/15 11:15:59;;;;;;;2.03;1.40;;;2.10;99.90;;;;;;5022403;28;20474;-61
2024/01/15 11:18:29;;;;;;;2.30;1.13;;;2.10;99.90;;;;;;5016003;28;20479;-62
2024/01/15 11:21:26;;;;;;;1.37;1.00;;;2.20;99.90;;;;;;5003539;28;20505;-61
2024/01/15 11:23:56;;;;;;;2.63;1.20;;;2.20;99.90;;;;;;5014941;28;21184;-61
2024/01/15 11:26:34;;;;;;;2.40;1.53;;;2.20;99.90;;;;;;5015396;28;20587;-61
2024/01/15 11:29:05;;;;;;;1.40;1.10;;;2.20;99.90;;;;;;5017535;28;20491;-63
2024/01/15 11:32:01;;;;;;;2.63;1.07;;;2.20;99.90;;;;;;5017608;28;20491;-61
2024/01/15 11:34:52;;;;;;;5.00;1.77;;;2.20;99.90;;;;;;5018691;28;20475;-60
2024/01/15 11:37:21;;;;;;;1.50;1.33;;;2.20;99.90;;;;;;5006769;28;20559;-61
2024/01/15 11:39:51;;;;;;;2.30;1.40;;;2.30;99.90;;;;;;5008537;28;20480;-60
2024/01/15 11:42:21;;;;;;;2.60;1.53;;;2.30;99.90;;;;;;5006059;28;20940;-60
2024/01/15 11:44:51;;;;;;;2.00;1.23;;;2.30;99.90;;;;;;5011833;28;20486;-61
2024/01/15 11:47:47;;;;;;;2.40;1.80;;;2.30;99.90;;;;;;5013090;28;20558;-60
2024/01/15 11:50:15;;;;;;;1.97;1.23;;;2.30;99.90;;;;;;5014617;28;20491;-61
2024/01/15 11:52:48;;;;;;;2.70;1.60;;;2.40;99.90;;;;;;5002569;28;20599;-61
2024/01/15 11:55:22;;;;;;;5.60;1.40;;;2.40;99.90;;;;;;5016982;28;20556;-61
2024/01/15 11:57:52;;;;;;;2.77;1.30;;;2.40;99.90;;;;;;5005680;28;20641;-61
2024/01/15 12:00:23;;;;;;;3.90;1.90;;;2.30;99.90;;;;;;5002158;28;20487;-59
2024/01/15 12:02:51;;;;;;;6.33;2.10;;;2.30;99.90;;;;;;5012934;28;21053;-61
2024/01/15 12:05:21;;;;;;;4.40;2.07;;;2.30;99.90;;;;;;5012659;28;20970;-61
2024/01/15 12:07:50;;;;;;;5.33;3.50;;;2.30;99.90;;;;;;5007574;28;20480;-60
2024/01/15 12:10:20;;;;;;;3.80;2.13;;;2.30;99.90;;;;;;5004078;28;20487;-60
2024/01/15 12:13:01;;;;;;;3.00;1.87;;;2.30;99.90;;;;;;5017055;28;20507;-61
2024/01/15 12:15:31;;;;;;;3.27;2.30;;;2.30;99.90;;;;;;5007818;28;20573;-60
2024/01/15 12:18:01;;;;;;;4.03;1.40;;;2.30;99.90;;;;;;5003101;28;21097;-60
2024/01/15 12:20:31;;;;;;;5.20;2.40;;;2.30;99.90;;;;;;5001193;28;21016;-61
2024/01/15 12:22:59;;;;;;;3.83;1.63;;;2.40;99.90;;;;;;5005037;28;20558;-61
2024/01/15 12:25:32;;;;;;;3.37;2.10;;;2.40;99.90;;;;;;5001231;28;20594;-59
2024/01/15 12:28:01;;;;;;;2.17;1.63;;;2.50;99.90;;;;;;5004959;28;20471;-61
2024/01/15 12:30:32;;;;;;;2.27;1.57;;;2.50;99.90;;;;;;5004334;28;20521;-60
2024/01/15 12:33:03;;;;;;;3.70;1.80;;;2.40;99.90;;;;;;5010559;28;20495;-61
2024/01/15 12:35:32;;;;;;;2.57;1.30;;;2.40;99.90;;;;;;5008650;28;20483;-59
2024/01/15 12:38:02;;;;;;;1.80;1.57;;;2.40;99.90;;;;;;5010542;28;20496;-61
2024/01/15 12:40:31;;;;;;;2.33;1.60;;;2.40;99.90;;;;;;5006661;28;20486;-61
2024/01/15 12:43:00;;;;;;;3.30;2.50;;;2.40;99.90;;;;;;5006659;28;20872;-59
2024/01/15 12:45:28;;;;;;;3.40;1.60;;;2.40;99.90;;;;;;5011731;28;20467;-61
2024/01/15 12:47:58;;;;;;;3.73;1.70;;;2.40;99.90;;;;;;5016319;28;20476;-60
2024/01/15 12:50:26;;;;;;;4.20;1.77;;;2.40;99.90;;;;;;5018189;28;20483;-62
2024/01/15 12:52:54;;;;;;;3.37;1.53;;;2.40;99.90;;;;;;5035253;28;20531;-59
2024/01/15 12:55:22;;;;;;;2.07;1.60;;;2.40;99.90;;;;;;5024941;28;20510;-60
2024/01/15 12:57:52;;;;;;;4.13;1.67;;;2.30;99.90;;;;;;5018154;28;20549;-61
2024/01/15 13:00:21;;;;;;;3.83;1.93;;;2.30;99.90;;;;;;5016887;28;20924;-60
2024/01/15 13:02:49;;;;;;;1.83;1.70;;;2.30;99.90;;;;;;5010475;28;20491;-60
2024/01/15 13:05:20;;;;;;;3.80;1.93;;;2.40;99.90;;;;;;5008245;28;20474;-61